Saiyo — A8ZS9 — position and weather

sailwx.info

Track history (hours):
 
Tides and Currents Weather Stations Pressure Air Temp Water Temp Dewpoint Dewpoint Depression Visibility Wind Speed Wind Dir Waves Ship Positions

Saiyo

Last reported at 2017-Aug-28 17:23 UTC. Time now 2017-Sep-23 23:57 UTC.
Position S 27°38' E 153°55'.
Warning: this ship's position is 26 days out of date.

Length 235 m; draft 12.7 m.

Type: Cargo ship. MMSI: 636015291.

Date/timePositionNaut miles runAvg speedWind from/ knotsBaromVisibWave heightAir tempDewpointWater temp
2017-Aug-28 17:23S 27°38' E 153°55'3 9.0
2017-Aug-28 17:00S 27°41' E 153°55'5 9.0
2017-Aug-28 16:30S 27°46' E 153°54'5 9.2
2017-Aug-28 16:00S 27°50' E 153°54'5 9.3
2017-Aug-28 15:30S 27°55' E 153°54'5 9.4
2017-Aug-28 15:00S 27°59' E 153°53'5 9.5
2017-Aug-28 14:30S 28°04' E 153°53'5 9.6
2017-Aug-28 14:00S 28°09' E 153°53'5 9.6
2017-Aug-28 13:30S 28°14' E 153°53'5 9.2
2017-Aug-28 13:00S 28°18' E 153°53'4 8.8
2017-Aug-28 12:29S 28°23' E 153°53'4 8.5
2017-Aug-28 12:00S 28°27' E 153°53'4 8.6
2017-Aug-28 11:30S 28°31' E 153°53'4 9.0
2017-Aug-28 11:00S 28°36' E 153°53'235 9.8
2017-Aug-27 11:02S 32°24' E 152°47'010.7
2017-Aug-27 11:00S 32°24' E 152°47'610.8
2017-Aug-27 10:29S 32°29' E 152°44'510.0
2017-Aug-27 10:00S 32°33' E 152°41'510.0
2017-Aug-27 09:31S 32°36' E 152°36'5 9.8
2017-Aug-27 09:01S 32°39' E 152°32'5 9.6
2017-Aug-27 08:31S 32°42' E 152°27'5 9.4
2017-Aug-27 08:01S 32°45' E 152°23'5 9.3
2017-Aug-27 07:31S 32°48' E 152°19'5 9.2
2017-Aug-27 07:01S 32°50' E 152°14'5 9.1
2017-Aug-27 06:31S 32°52' E 152°09'5 9.5
2017-Aug-27 06:01S 32°54' E 152°04'5 9.5
2017-Aug-27 05:31S 32°55' E 151°58'5 9.5
2017-Aug-27 05:01S 32°57' E 151°53'4 7.2
2017-Aug-27 04:31S 32°56' E 151°49'2 4.2
2017-Aug-27 04:00S 32°55' E 151°47'2 3.4
2017-Aug-27 03:30S 32°54' E 151°46'1 1.8
2017-Aug-27 02:58S 32°53' E 151°45'0 0.0
2017-Aug-27 02:28S 32°53' E 151°45'0 0.0
2017-Aug-27 01:58S 32°53' E 151°45'0 0.0
2017-Aug-27 01:25S 32°53' E 151°45'0 0.0
2017-Aug-27 00:55S 32°53' E 151°45'0 0.0
2017-Aug-27 00:22S 32°53' E 151°45'0 0.0
2017-Aug-26 23:52S 32°53' E 151°45'0 0.0
2017-Aug-26 23:28S 32°53' E 151°45'0 0.0
2017-Aug-26 22:58S 32°53' E 151°45'0 0.0
2017-Aug-26 22:28S 32°53' E 151°45'0 0.0
2017-Aug-26 21:58S 32°53' E 151°45'0 0.0
2017-Aug-26 21:28S 32°53' E 151°45'0 0.0
2017-Aug-26 20:58S 32°53' E 151°45'0 0.0
2017-Aug-26 20:28S 32°53' E 151°45'0 0.0
2017-Aug-26 19:58S 32°53' E 151°45'0 0.0
2017-Aug-26 19:28S 32°53' E 151°45'0 0.0
2017-Aug-26 18:58S 32°53' E 151°45'0 0.0
2017-Aug-26 18:28S 32°53' E 151°45'0 0.0
2017-Aug-26 17:58S 32°53' E 151°45'0 0.0
2017-Aug-26 17:28S 32°53' E 151°45'0 0.0
2017-Aug-26 16:58S 32°53' E 151°45'0 0.0
2017-Aug-26 16:28S 32°53' E 151°45'0 0.0
2017-Aug-26 15:58S 32°53' E 151°45'0 0.0
2017-Aug-26 15:28S 32°53' E 151°45'0 0.0
2017-Aug-26 14:58S 32°53' E 151°45'0 0.0
2017-Aug-26 13:58S 32°53' E 151°45'0 0.0
2017-Aug-26 13:28S 32°53' E 151°45'0 0.0
2017-Aug-26 12:58S 32°53' E 151°45'0 0.0
2017-Aug-26 12:28S 32°53' E 151°45'0 0.0
2017-Aug-26 11:58S 32°53' E 151°45'0 0.0
2017-Aug-26 11:28S 32°53' E 151°45'0 0.0
2017-Aug-26 10:58S 32°53' E 151°45'0 0.0
2017-Aug-26 10:28S 32°53' E 151°45'0 0.0
2017-Aug-26 10:00S 32°53' E 151°45'0 0.0
2017-Aug-26 09:31S 32°53' E 151°45'1 1.5
2017-Aug-26 09:00S 32°54' E 151°46'2 4.1
2017-Aug-26 08:30S 32°55' E 151°48'4 8.7
2017-Aug-26 08:01S 32°58' E 151°52'4 8.1
2017-Aug-26 07:31S 33°01' E 151°54'4 8.2
2017-Aug-26 07:00S 33°04' E 151°58'4 7.6
2017-Aug-26 06:31S 33°02' E 152°02'4 7.7
2017-Aug-26 06:00S 33°00' E 152°06'510.1
2017-Aug-26 05:30S 32°60' E 152°12'611.5
2017-Aug-26 05:01S 32°60' E 152°19'1 2.1
2017-Aug-26 04:30S 33°00' E 152°20'0 1.0
2017-Aug-26 04:01S 33°01' E 152°20'1 1.1
2017-Aug-26 03:30S 33°01' E 152°20'0 0.9
2017-Aug-26 03:01S 33°02' E 152°19'0 0.7
2017-Aug-26 02:31S 33°02' E 152°19'3 5.9
2017-Aug-26 02:01S 32°59' E 152°18'510.5
2017-Aug-26 01:31S 32°54' E 152°20'611.0
2017-Aug-26 01:01S 32°50' E 152°24'611.2
2017-Aug-26 00:30S 32°45' E 152°28'611.3
2017-Aug-26 00:00S 32°41' E 152°32'510.9
2017-Aug-25 23:31S 32°37' E 152°36'510.5
2017-Aug-25 22:59S 32°33' E 152°42'510.3
2017-Aug-25 22:29S 32°30' E 152°47'2 0.1
2017-Aug-25 05:47S 32°30' E 152°49'4 2.4
2017-Aug-25 04:05S 32°34' E 152°46'0 2.5
2017-Aug-25 03:54S 32°34' E 152°46'1 2.4
2017-Aug-25 03:30S 32°35' E 152°46'1 2.6
2017-Aug-25 03:00S 32°36' E 152°45'1 2.6
2017-Aug-25 02:30S 32°37' E 152°44'1 2.5
2017-Aug-25 02:00S 32°38' E 152°43'1 2.5
2017-Aug-25 01:30S 32°40' E 152°43'1 2.6
2017-Aug-25 01:01S 32°41' E 152°43'1 2.6
2017-Aug-25 00:30S 32°42' E 152°43'1 2.7
2017-Aug-25 00:01S 32°43' E 152°43'1 2.5
2017-Aug-24 23:31S 32°45' E 152°42'1 2.5
2017-Aug-24 23:00S 32°46' E 152°42'1 2.2
2017-Aug-24 22:29S 32°47' E 152°42'1 2.0
2017-Aug-24 22:00S 32°48' E 152°42'1 2.1
2017-Aug-24 21:30S 32°49' E 152°41'1 2.0
2017-Aug-24 20:59S 32°50' E 152°41'1 2.1
2017-Aug-24 20:31S 32°51' E 152°41'1 2.2
2017-Aug-24 20:00S 32°52' E 152°40'1 2.2
2017-Aug-24 19:31S 32°53' E 152°39'1 2.1
2017-Aug-24 19:00S 32°54' E 152°39'1 2.1
2017-Aug-24 18:31S 32°55' E 152°38'1 2.0
2017-Aug-24 18:01S 32°55' E 152°37'1 1.8
2017-Aug-24 17:31S 32°56' E 152°36'1 1.6
2017-Aug-24 17:01S 32°57' E 152°36'1 1.7
2017-Aug-24 16:31S 32°57' E 152°35'1 1.9
2017-Aug-24 16:01S 32°58' E 152°35'1 2.1
2017-Aug-24 15:30S 32°59' E 152°34'1 2.1
2017-Aug-24 15:00S 33°00' E 152°34'1 2.2
2017-Aug-24 14:30S 33°01' E 152°33'1 2.1
2017-Aug-24 14:01S 33°02' E 152°33'1 2.0
2017-Aug-24 13:31S 33°03' E 152°32'1 2.5
2017-Aug-24 13:00S 33°04' E 152°32'1 2.3
2017-Aug-24 12:28S 33°05' E 152°31'1 2.6
2017-Aug-24 12:00S 33°06' E 152°30'1 2.8
2017-Aug-24 11:31S 33°07' E 152°29'1 2.7
2017-Aug-24 11:00S 33°08' E 152°28'2 2.8
2017-Aug-24 10:12S 33°11' E 152°27'1 2.8
2017-Aug-24 09:49S 33°11' E 152°26'1 2.8
2017-Aug-24 09:30S 33°12' E 152°26'1 2.8
2017-Aug-24 09:01S 33°13' E 152°25'1 2.7
2017-Aug-24 08:30S 33°15' E 152°24'1 2.8
2017-Aug-24 08:00S 33°16' E 152°24'1 2.9
2017-Aug-24 07:30S 33°17' E 152°23'22 1.1
2017-Aug-23 11:40S 33°22' E 151°57'0 2.3
2017-Aug-23 11:30S 33°21' E 151°57'1 2.7
2017-Aug-23 11:00S 33°20' E 151°57'4 7.6
2017-Aug-23 10:30S 33°16' E 151°55'4 7.2
2017-Aug-23 10:00S 33°15' E 151°51'2 2.0
2017-Aug-23 09:14S 33°16' E 151°49'1 3.0
2017-Aug-23 09:01S 33°16' E 151°50'1 2.8
2017-Aug-23 08:30S 33°15' E 151°51'1 2.7
2017-Aug-23 08:01S 33°14' E 151°52'1 2.5
2017-Aug-23 07:30S 33°13' E 151°54'1 2.5
2017-Aug-23 07:01S 33°12' E 151°55'1 2.3
2017-Aug-23 06:31S 33°12' E 151°56'1 2.2
2017-Aug-23 06:00S 33°11' E 151°57'1 2.0
2017-Aug-23 05:31S 33°11' E 151°58'1 2.0
2017-Aug-23 05:01S 33°10' E 151°59'1 1.9
2017-Aug-23 04:30S 33°10' E 152°00'1 1.7
2017-Aug-23 04:00S 33°10' E 152°01'1 1.4
2017-Aug-23 03:30S 33°09' E 152°02'1 1.4
2017-Aug-23 03:01S 33°09' E 152°03'1 1.7
2017-Aug-23 02:31S 33°09' E 152°03'1 1.6
2017-Aug-23 02:01S 33°08' E 152°04'1 1.6
2017-Aug-23 01:31S 33°07' E 152°05'1 1.5
2017-Aug-23 01:01S 33°07' E 152°06'1 1.5
2017-Aug-23 00:30S 33°06' E 152°06'1 1.5
2017-Aug-23 00:01S 33°06' E 152°07'1 1.7
2017-Aug-22 23:30S 33°05' E 152°07'1 1.9
2017-Aug-22 23:01S 33°04' E 152°08'1 2.1
2017-Aug-22 22:31S 33°03' E 152°09'1 2.2
2017-Aug-22 22:01S 33°03' E 152°09'1 2.3
2017-Aug-22 21:30S 33°02' E 152°10'1 2.3
2017-Aug-22 21:01S 33°01' E 152°11'1 2.3
2017-Aug-22 20:30S 33°00' E 152°13'1 2.2
2017-Aug-22 20:01S 32°60' E 152°14'1 2.2
2017-Aug-22 19:31S 32°59' E 152°15'1 2.1
2017-Aug-22 19:01S 32°58' E 152°16'1 1.9
2017-Aug-22 18:30S 32°58' E 152°17'1 2.0
2017-Aug-22 18:00S 32°57' E 152°18'1 2.1
2017-Aug-22 17:31S 32°57' E 152°19'1 2.0
2017-Aug-22 17:00S 32°56' E 152°20'1 1.8
2017-Aug-22 16:31S 32°56' E 152°21'1 1.9
2017-Aug-22 16:00S 32°55' E 152°22'1 1.9
2017-Aug-22 15:31S 32°55' E 152°23'1 2.0
2017-Aug-22 15:01S 32°55' E 152°24'1 1.9
2017-Aug-22 14:31S 32°54' E 152°25'1 2.0
2017-Aug-22 14:00S 32°54' E 152°26'1 2.0
2017-Aug-22 13:31S 32°53' E 152°27'1 2.1
2017-Aug-22 13:01S 32°53' E 152°28'1 1.9
2017-Aug-22 12:31S 32°53' E 152°29'1 1.8
2017-Aug-22 12:00S 32°53' E 152°30'1 1.7
2017-Aug-22 11:30S 32°54' E 152°31'1 1.6
2017-Aug-22 11:00S 32°54' E 152°32'1 1.4
2017-Aug-22 10:31S 32°54' E 152°33'1 1.3
2017-Aug-22 10:01S 32°55' E 152°34'1 1.3
2017-Aug-22 09:31S 32°55' E 152°34'1 1.1
2017-Aug-22 09:00S 32°56' E 152°35'1 1.1
2017-Aug-22 08:30S 32°56' E 152°35'0 1.0
2017-Aug-22 08:00S 32°56' E 152°36'0 0.7
2017-Aug-22 07:24S 32°56' E 152°36'2 5.2
2017-Aug-22 07:00S 32°54' E 152°37'611.8
2017-Aug-22 06:30S 32°50' E 152°42'40 1.6
2017-Aug-21 05:49S 32°15' E 153°04'13 2.5
2017-Aug-21 00:22S 32°15' E 152°49'1 1.4
2017-Aug-20 23:56S 32°15' E 152°49'1 1.4
2017-Aug-20 23:31S 32°15' E 152°50'1 1.3
2017-Aug-20 23:00S 32°15' E 152°51'1 1.3
2017-Aug-20 22:30S 32°15' E 152°52'1 1.1
2017-Aug-20 21:59S 32°15' E 152°52'  
Track history (hours):
 
Tides and Currents Weather Stations Pressure Air Temp Water Temp Dewpoint Dewpoint Depression Visibility Wind Speed Wind Dir Waves Ship Positions

Saiyo

Last reported at 2017-Aug-28 17:23 UTC. Time now 2017-Sep-23 23:57 UTC.
Position S 27°38' E 153°55'.
Warning: this ship's position is 26 days out of date.

Length 235 m; draft 12.7 m.

Type: Cargo ship. MMSI: 636015291.

Date/timePositionNaut miles runAvg speedWind from/ knotsBaromVisibWave heightAir tempDewpointWater temp
2017-Aug-28 17:23S 27°38' E 153°55'3 9.0
2017-Aug-28 17:00S 27°41' E 153°55'5 9.0
2017-Aug-28 16:30S 27°46' E 153°54'5 9.2
2017-Aug-28 16:00S 27°50' E 153°54'5 9.3
2017-Aug-28 15:30S 27°55' E 153°54'5 9.4
2017-Aug-28 15:00S 27°59' E 153°53'5 9.5
2017-Aug-28 14:30S 28°04' E 153°53'5 9.6
2017-Aug-28 14:00S 28°09' E 153°53'5 9.6
2017-Aug-28 13:30S 28°14' E 153°53'5 9.2
2017-Aug-28 13:00S 28°18' E 153°53'4 8.8
2017-Aug-28 12:29S 28°23' E 153°53'4 8.5
2017-Aug-28 12:00S 28°27' E 153°53'4 8.6
2017-Aug-28 11:30S 28°31' E 153°53'4 9.0
2017-Aug-28 11:00S 28°36' E 153°53'235 9.8
2017-Aug-27 11:02S 32°24' E 152°47'010.7
2017-Aug-27 11:00S 32°24' E 152°47'610.8
2017-Aug-27 10:29S 32°29' E 152°44'510.0
2017-Aug-27 10:00S 32°33' E 152°41'510.0
2017-Aug-27 09:31S 32°36' E 152°36'5 9.8
2017-Aug-27 09:01S 32°39' E 152°32'5 9.6
2017-Aug-27 08:31S 32°42' E 152°27'5 9.4
2017-Aug-27 08:01S 32°45' E 152°23'5 9.3
2017-Aug-27 07:31S 32°48' E 152°19'5 9.2
2017-Aug-27 07:01S 32°50' E 152°14'5 9.1
2017-Aug-27 06:31S 32°52' E 152°09'5 9.5
2017-Aug-27 06:01S 32°54' E 152°04'5 9.5
2017-Aug-27 05:31S 32°55' E 151°58'5 9.5
2017-Aug-27 05:01S 32°57' E 151°53'4 7.2
2017-Aug-27 04:31S 32°56' E 151°49'2 4.2
2017-Aug-27 04:00S 32°55' E 151°47'2 3.4
2017-Aug-27 03:30S 32°54' E 151°46'1 1.8
2017-Aug-27 02:58S 32°53' E 151°45'0 0.0
2017-Aug-27 02:28S 32°53' E 151°45'0 0.0
2017-Aug-27 01:58S 32°53' E 151°45'0 0.0
2017-Aug-27 01:25S 32°53' E 151°45'0 0.0
2017-Aug-27 00:55S 32°53' E 151°45'0 0.0
2017-Aug-27 00:22S 32°53' E 151°45'0 0.0
2017-Aug-26 23:52S 32°53' E 151°45'0 0.0
2017-Aug-26 23:28S 32°53' E 151°45'0 0.0
2017-Aug-26 22:58S 32°53' E 151°45'0 0.0
2017-Aug-26 22:28S 32°53' E 151°45'0 0.0
2017-Aug-26 21:58S 32°53' E 151°45'0 0.0
2017-Aug-26 21:28S 32°53' E 151°45'0 0.0
2017-Aug-26 20:58S 32°53' E 151°45'0 0.0
2017-Aug-26 20:28S 32°53' E 151°45'0 0.0
2017-Aug-26 19:58S 32°53' E 151°45'0 0.0
2017-Aug-26 19:28S 32°53' E 151°45'0 0.0
2017-Aug-26 18:58S 32°53' E 151°45'0 0.0
2017-Aug-26 18:28S 32°53' E 151°45'0 0.0
2017-Aug-26 17:58S 32°53' E 151°45'0 0.0
2017-Aug-26 17:28S 32°53' E 151°45'0 0.0
2017-Aug-26 16:58S 32°53' E 151°45'0 0.0
2017-Aug-26 16:28S 32°53' E 151°45'0 0.0
2017-Aug-26 15:58S 32°53' E 151°45'0 0.0
2017-Aug-26 15:28S 32°53' E 151°45'0 0.0
2017-Aug-26 14:58S 32°53' E 151°45'0 0.0
2017-Aug-26 13:58S 32°53' E 151°45'0 0.0
2017-Aug-26 13:28S 32°53' E 151°45'0 0.0
2017-Aug-26 12:58S 32°53' E 151°45'0 0.0
2017-Aug-26 12:28S 32°53' E 151°45'0 0.0
2017-Aug-26 11:58S 32°53' E 151°45'0 0.0
2017-Aug-26 11:28S 32°53' E 151°45'0 0.0
2017-Aug-26 10:58S 32°53' E 151°45'0 0.0
2017-Aug-26 10:28S 32°53' E 151°45'0 0.0
2017-Aug-26 10:00S 32°53' E 151°45'0 0.0
2017-Aug-26 09:31S 32°53' E 151°45'1 1.5
2017-Aug-26 09:00S 32°54' E 151°46'2 4.1
2017-Aug-26 08:30S 32°55' E 151°48'4 8.7
2017-Aug-26 08:01S 32°58' E 151°52'4 8.1
2017-Aug-26 07:31S 33°01' E 151°54'4 8.2
2017-Aug-26 07:00S 33°04' E 151°58'4 7.6
2017-Aug-26 06:31S 33°02' E 152°02'4 7.7
2017-Aug-26 06:00S 33°00' E 152°06'510.1
2017-Aug-26 05:30S 32°60' E 152°12'611.5
2017-Aug-26 05:01S 32°60' E 152°19'1 2.1
2017-Aug-26 04:30S 33°00' E 152°20'0 1.0
2017-Aug-26 04:01S 33°01' E 152°20'1 1.1
2017-Aug-26 03:30S 33°01' E 152°20'0 0.9
2017-Aug-26 03:01S 33°02' E 152°19'0 0.7
2017-Aug-26 02:31S 33°02' E 152°19'3 5.9
2017-Aug-26 02:01S 32°59' E 152°18'510.5
2017-Aug-26 01:31S 32°54' E 152°20'611.0
2017-Aug-26 01:01S 32°50' E 152°24'611.2
2017-Aug-26 00:30S 32°45' E 152°28'611.3
2017-Aug-26 00:00S 32°41' E 152°32'510.9
2017-Aug-25 23:31S 32°37' E 152°36'510.5
2017-Aug-25 22:59S 32°33' E 152°42'510.3
2017-Aug-25 22:29S 32°30' E 152°47'2 0.1
2017-Aug-25 05:47S 32°30' E 152°49'4 2.4
2017-Aug-25 04:05S 32°34' E 152°46'0 2.5
2017-Aug-25 03:54S 32°34' E 152°46'1 2.4
2017-Aug-25 03:30S 32°35' E 152°46'1 2.6
2017-Aug-25 03:00S 32°36' E 152°45'1 2.6
2017-Aug-25 02:30S 32°37' E 152°44'1 2.5
2017-Aug-25 02:00S 32°38' E 152°43'1 2.5
2017-Aug-25 01:30S 32°40' E 152°43'1 2.6
2017-Aug-25 01:01S 32°41' E 152°43'1 2.6
2017-Aug-25 00:30S 32°42' E 152°43'1 2.7
2017-Aug-25 00:01S 32°43' E 152°43'1 2.5
2017-Aug-24 23:31S 32°45' E 152°42'1 2.5
2017-Aug-24 23:00S 32°46' E 152°42'1 2.2
2017-Aug-24 22:29S 32°47' E 152°42'1 2.0
2017-Aug-24 22:00S 32°48' E 152°42'1 2.1
2017-Aug-24 21:30S 32°49' E 152°41'1 2.0
2017-Aug-24 20:59S 32°50' E 152°41'1 2.1
2017-Aug-24 20:31S 32°51' E 152°41'1 2.2
2017-Aug-24 20:00S 32°52' E 152°40'1 2.2
2017-Aug-24 19:31S 32°53' E 152°39'1 2.1
2017-Aug-24 19:00S 32°54' E 152°39'1 2.1
2017-Aug-24 18:31S 32°55' E 152°38'1 2.0
2017-Aug-24 18:01S 32°55' E 152°37'1 1.8
2017-Aug-24 17:31S 32°56' E 152°36'1 1.6
2017-Aug-24 17:01S 32°57' E 152°36'1 1.7
2017-Aug-24 16:31S 32°57' E 152°35'1 1.9
2017-Aug-24 16:01S 32°58' E 152°35'1 2.1
2017-Aug-24 15:30S 32°59' E 152°34'1 2.1
2017-Aug-24 15:00S 33°00' E 152°34'1 2.2
2017-Aug-24 14:30S 33°01' E 152°33'1 2.1
2017-Aug-24 14:01S 33°02' E 152°33'1 2.0
2017-Aug-24 13:31S 33°03' E 152°32'1 2.5
2017-Aug-24 13:00S 33°04' E 152°32'1 2.3
2017-Aug-24 12:28S 33°05' E 152°31'1 2.6
2017-Aug-24 12:00S 33°06' E 152°30'1 2.8
2017-Aug-24 11:31S 33°07' E 152°29'1 2.7
2017-Aug-24 11:00S 33°08' E 152°28'2 2.8
2017-Aug-24 10:12S 33°11' E 152°27'1 2.8
2017-Aug-24 09:49S 33°11' E 152°26'1 2.8
2017-Aug-24 09:30S 33°12' E 152°26'1 2.8
2017-Aug-24 09:01S 33°13' E 152°25'1 2.7
2017-Aug-24 08:30S 33°15' E 152°24'1 2.8
2017-Aug-24 08:00S 33°16' E 152°24'1 2.9
2017-Aug-24 07:30S 33°17' E 152°23'22 1.1
2017-Aug-23 11:40S 33°22' E 151°57'0 2.3
2017-Aug-23 11:30S 33°21' E 151°57'1 2.7
2017-Aug-23 11:00S 33°20' E 151°57'4 7.6
2017-Aug-23 10:30S 33°16' E 151°55'4 7.2
2017-Aug-23 10:00S 33°15' E 151°51'2 2.0
2017-Aug-23 09:14S 33°16' E 151°49'1 3.0
2017-Aug-23 09:01S 33°16' E 151°50'1 2.8
2017-Aug-23 08:30S 33°15' E 151°51'1 2.7
2017-Aug-23 08:01S 33°14' E 151°52'1 2.5
2017-Aug-23 07:30S 33°13' E 151°54'1 2.5
2017-Aug-23 07:01S 33°12' E 151°55'1 2.3
2017-Aug-23 06:31S 33°12' E 151°56'1 2.2
2017-Aug-23 06:00S 33°11' E 151°57'1 2.0
2017-Aug-23 05:31S 33°11' E 151°58'1 2.0
2017-Aug-23 05:01S 33°10' E 151°59'1 1.9
2017-Aug-23 04:30S 33°10' E 152°00'1 1.7
2017-Aug-23 04:00S 33°10' E 152°01'1 1.4
2017-Aug-23 03:30S 33°09' E 152°02'1 1.4
2017-Aug-23 03:01S 33°09' E 152°03'1 1.7
2017-Aug-23 02:31S 33°09' E 152°03'1 1.6
2017-Aug-23 02:01S 33°08' E 152°04'1 1.6
2017-Aug-23 01:31S 33°07' E 152°05'1 1.5
2017-Aug-23 01:01S 33°07' E 152°06'1 1.5
2017-Aug-23 00:30S 33°06' E 152°06'1 1.5
2017-Aug-23 00:01S 33°06' E 152°07'1 1.7
2017-Aug-22 23:30S 33°05' E 152°07'1 1.9
2017-Aug-22 23:01S 33°04' E 152°08'1 2.1
2017-Aug-22 22:31S 33°03' E 152°09'1 2.2
2017-Aug-22 22:01S 33°03' E 152°09'1 2.3
2017-Aug-22 21:30S 33°02' E 152°10'1 2.3
2017-Aug-22 21:01S 33°01' E 152°11'1 2.3
2017-Aug-22 20:30S 33°00' E 152°13'1 2.2
2017-Aug-22 20:01S 32°60' E 152°14'1 2.2
2017-Aug-22 19:31S 32°59' E 152°15'1 2.1
2017-Aug-22 19:01S 32°58' E 152°16'1 1.9
2017-Aug-22 18:30S 32°58' E 152°17'1 2.0
2017-Aug-22 18:00S 32°57' E 152°18'1 2.1
2017-Aug-22 17:31S 32°57' E 152°19'1 2.0
2017-Aug-22 17:00S 32°56' E 152°20'1 1.8
2017-Aug-22 16:31S 32°56' E 152°21'1 1.9
2017-Aug-22 16:00S 32°55' E 152°22'1 1.9
2017-Aug-22 15:31S 32°55' E 152°23'1 2.0
2017-Aug-22 15:01S 32°55' E 152°24'1 1.9
2017-Aug-22 14:31S 32°54' E 152°25'1 2.0
2017-Aug-22 14:00S 32°54' E 152°26'1 2.0
2017-Aug-22 13:31S 32°53' E 152°27'1 2.1
2017-Aug-22 13:01S 32°53' E 152°28'1 1.9
2017-Aug-22 12:31S 32°53' E 152°29'1 1.8
2017-Aug-22 12:00S 32°53' E 152°30'1 1.7
2017-Aug-22 11:30S 32°54' E 152°31'1 1.6
2017-Aug-22 11:00S 32°54' E 152°32'1 1.4
2017-Aug-22 10:31S 32°54' E 152°33'1 1.3
2017-Aug-22 10:01S 32°55' E 152°34'1 1.3
2017-Aug-22 09:31S 32°55' E 152°34'1 1.1
2017-Aug-22 09:00S 32°56' E 152°35'1 1.1
2017-Aug-22 08:30S 32°56' E 152°35'0 1.0
2017-Aug-22 08:00S 32°56' E 152°36'0 0.7
2017-Aug-22 07:24S 32°56' E 152°36'2 5.2
2017-Aug-22 07:00S 32°54' E 152°37'611.8
2017-Aug-22 06:30S 32°50' E 152°42'40 1.6
2017-Aug-21 05:49S 32°15' E 153°04'13 2.5
2017-Aug-21 00:22S 32°15' E 152°49'1 1.4
2017-Aug-20 23:56S 32°15' E 152°49'1 1.4
2017-Aug-20 23:31S 32°15' E 152°50'1 1.3
2017-Aug-20 23:00S 32°15' E 152°51'1 1.3
2017-Aug-20 22:30S 32°15' E 152°52'1 1.1
2017-Aug-20 21:59S 32°15' E 152°52'  

Dump ship's entire track history